sensor_id;sensor_type;location;lat;lon;timestamp;temperature;humidity
10538;DHT22;5317;49.048;8.468;2023-08-20T00:00:04;28.40;84.90
10538;DHT22;5317;49.048;8.468;2023-08-20T00:02:33;28.40;84.90
10538;DHT22;5317;49.048;8.468;2023-08-20T00:05:04;28.30;85.00
10538;DHT22;5317;49.048;8.468;2023-08-20T00:07:31;28.30;85.10
10538;DHT22;5317;49.048;8.468;2023-08-20T00:09:58;28.30;85.10
10538;DHT22;5317;49.048;8.468;2023-08-20T00:12:25;28.30;85.90
10538;DHT22;5317;49.048;8.468;2023-08-20T00:14:54;28.30;85.10
10538;DHT22;5317;49.048;8.468;2023-08-20T00:17:22;28.30;85.20
10538;DHT22;5317;49.048;8.468;2023-08-20T00:19:53;28.30;85.30
10538;DHT22;5317;49.048;8.468;2023-08-20T00:22:22;28.30;85.30
10538;DHT22;5317;49.048;8.468;2023-08-20T00:24:50;28.20;85.20
10538;DHT22;5317;49.048;8.468;2023-08-20T00:27:17;28.20;85.10
10538;DHT22;5317;49.048;8.468;2023-08-20T00:29:44;28.20;85.20
10538;DHT22;5317;49.048;8.468;2023-08-20T00:32:11;28.10;85.30
10538;DHT22;5317;49.048;8.468;2023-08-20T00:34:38;28.20;85.50
10538;DHT22;5317;49.048;8.468;2023-08-20T00:37:05;28.10;85.70
10538;DHT22;5317;49.048;8.468;2023-08-20T00:39:33;28.10;85.80
10538;DHT22;5317;49.048;8.468;2023-08-20T00:42:00;28.00;85.90
10538;DHT22;5317;49.048;8.468;2023-08-20T00:44:28;27.90;85.90
10538;DHT22;5317;49.048;8.468;2023-08-20T00:46:55;27.80;86.20
10538;DHT22;5317;49.048;8.468;2023-08-20T00:49:22;27.70;86.50
10538;DHT22;5317;49.048;8.468;2023-08-20T00:51:49;27.70;86.70
10538;DHT22;5317;49.048;8.468;2023-08-20T00:54:17;27.70;86.90
10538;DHT22;5317;49.048;8.468;2023-08-20T00:56:46;27.70;86.70
10538;DHT22;5317;49.048;8.468;2023-08-20T00:59:14;27.70;86.60
10538;DHT22;5317;49.048;8.468;2023-08-20T01:01:40;27.70;86.50
10538;DHT22;5317;49.048;8.468;2023-08-20T01:04:07;27.70;86.40
10538;DHT22;5317;49.048;8.468;2023-08-20T01:06:43;27.60;86.40
10538;DHT22;5317;49.048;8.468;2023-08-20T01:09:17;27.60;86.40
10538;DHT22;5317;49.048;8.468;2023-08-20T01:11:55;27.60;86.30
10538;DHT22;5317;49.048;8.468;2023-08-20T01:14:22;27.60;86.50
10538;DHT22;5317;49.048;8.468;2023-08-20T01:16:49;27.60;86.50
10538;DHT22;5317;49.048;8.468;2023-08-20T01:19:17;27.60;86.30
10538;DHT22;5317;49.048;8.468;2023-08-20T01:21:52;27.60;86.30
10538;DHT22;5317;49.048;8.468;2023-08-20T01:24:38;27.60;86.60
10538;DHT22;5317;49.048;8.468;2023-08-20T01:27:23;27.50;86.90
10538;DHT22;5317;49.048;8.468;2023-08-20T01:29:55;27.50;87.10
10538;DHT22;5317;49.048;8.468;2023-08-20T01:32:23;27.40;86.60
10538;DHT22;5317;49.048;8.468;2023-08-20T01:34:51;27.40;86.50
10538;DHT22;5317;49.048;8.468;2023-08-20T01:37:18;27.40;86.70
10538;DHT22;5317;49.048;8.468;2023-08-20T01:39:45;27.30;86.60
10538;DHT22;5317;49.048;8.468;2023-08-20T01:42:12;27.30;86.90
10538;DHT22;5317;49.048;8.468;2023-08-20T01:44:38;27.30;87.00
10538;DHT22;5317;49.048;8.468;2023-08-20T01:47:07;27.20;87.00
10538;DHT22;5317;49.048;8.468;2023-08-20T01:49:33;27.20;87.20
10538;DHT22;5317;49.048;8.468;2023-08-20T01:52:00;27.20;87.20
10538;DHT22;5317;49.048;8.468;2023-08-20T01:54:27;27.20;87.20
10538;DHT22;5317;49.048;8.468;2023-08-20T01:56:54;27.20;87.10
10538;DHT22;5317;49.048;8.468;2023-08-20T01:59:22;27.10;87.20
10538;DHT22;5317;49.048;8.468;2023-08-20T02:01:49;27.10;87.20
10538;DHT22;5317;49.048;8.468;2023-08-20T02:04:17;27.10;86.90
10538;DHT22;5317;49.048;8.468;2023-08-20T02:06:44;27.10;86.80
10538;DHT22;5317;49.048;8.468;2023-08-20T02:09:11;27.10;86.80
10538;DHT22;5317;49.048;8.468;2023-08-20T02:11:38;27.10;87.50
10538;DHT22;5317;49.048;8.468;2023-08-20T02:14:04;27.00;86.70
10538;DHT22;5317;49.048;8.468;2023-08-20T02:16:32;27.00;86.80
10538;DHT22;5317;49.048;8.468;2023-08-20T02:18:58;27.00;86.90
10538;DHT22;5317;49.048;8.468;2023-08-20T02:21:27;27.00;86.80
10538;DHT22;5317;49.048;8.468;2023-08-20T02:23:54;26.90;86.70
10538;DHT22;5317;49.048;8.468;2023-08-20T02:26:21;26.90;86.80
10538;DHT22;5317;49.048;8.468;2023-08-20T02:28:48;26.80;87.00
10538;DHT22;5317;49.048;8.468;2023-08-20T02:31:14;26.70;87.00
10538;DHT22;5317;49.048;8.468;2023-08-20T02:33:41;26.80;87.10
10538;DHT22;5317;49.048;8.468;2023-08-20T02:36:08;26.70;87.00
10538;DHT22;5317;49.048;8.468;2023-08-20T02:38:36;26.70;87.20
10538;DHT22;5317;49.048;8.468;2023-08-20T02:41:03;26.70;87.20
10538;DHT22;5317;49.048;8.468;2023-08-20T02:43:30;26.70;87.20
10538;DHT22;5317;49.048;8.468;2023-08-20T02:45:57;26.70;87.00
10538;DHT22;5317;49.048;8.468;2023-08-20T02:48:24;26.70;86.90
10538;DHT22;5317;49.048;8.468;2023-08-20T02:50:52;26.70;86.90
10538;DHT22;5317;49.048;8.468;2023-08-20T02:53:19;26.70;86.80
10538;DHT22;5317;49.048;8.468;2023-08-20T02:55:48;26.70;86.80
10538;DHT22;5317;49.048;8.468;2023-08-20T02:58:15;26.70;86.80
10538;DHT22;5317;49.048;8.468;2023-08-20T03:00:42;26.70;87.00
10538;DHT22;5317;49.048;8.468;2023-08-20T03:03:10;26.70;87.10
10538;DHT22;5317;49.048;8.468;2023-08-20T03:05:37;26.60;87.90
10538;DHT22;5317;49.048;8.468;2023-08-20T03:08:04;26.60;87.20
10538;DHT22;5317;49.048;8.468;2023-08-20T03:10:32;26.50;87.20
10538;DHT22;5317;49.048;8.468;2023-08-20T03:13:01;26.50;86.90
10538;DHT22;5317;49.048;8.468;2023-08-20T03:15:28;26.50;86.90
10538;DHT22;5317;49.048;8.468;2023-08-20T03:17:55;26.60;86.90
10538;DHT22;5317;49.048;8.468;2023-08-20T03:20:22;26.60;86.90
10538;DHT22;5317;49.048;8.468;2023-08-20T03:22:49;26.50;86.80
10538;DHT22;5317;49.048;8.468;2023-08-20T03:25:17;26.50;86.70
10538;DHT22;5317;49.048;8.468;2023-08-20T03:27:44;26.50;86.70
10538;DHT22;5317;49.048;8.468;2023-08-20T03:30:12;26.50;86.80
10538;DHT22;5317;49.048;8.468;2023-08-20T03:32:39;26.50;86.80
10538;DHT22;5317;49.048;8.468;2023-08-20T03:35:06;26.40;86.60
10538;DHT22;5317;49.048;8.468;2023-08-20T03:37:33;26.40;86.80
10538;DHT22;5317;49.048;8.468;2023-08-20T03:40:00;26.40;86.80
10538;DHT22;5317;49.048;8.468;2023-08-20T03:42:27;26.40;86.70
10538;DHT22;5317;49.048;8.468;2023-08-20T03:44:56;26.30;86.60
10538;DHT22;5317;49.048;8.468;2023-08-20T03:47:24;26.30;87.30
10538;DHT22;5317;49.048;8.468;2023-08-20T03:49:52;26.30;86.60
10538;DHT22;5317;49.048;8.468;2023-08-20T03:52:19;26.30;86.60
10538;DHT22;5317;49.048;8.468;2023-08-20T03:54:46;26.30;86.60
10538;DHT22;5317;49.048;8.468;2023-08-20T03:57:12;26.30;86.40
10538;DHT22;5317;49.048;8.468;2023-08-20T03:59:39;26.30;86.40
10538;DHT22;5317;49.048;8.468;2023-08-20T04:02:06;26.30;86.40
10538;DHT22;5317;49.048;8.468;2023-08-20T04:04:34;26.30;86.60
10538;DHT22;5317;49.048;8.468;2023-08-20T04:07:02;26.30;86.60
10538;DHT22;5317;49.048;8.468;2023-08-20T04:09:29;26.20;86.90
10538;DHT22;5317;49.048;8.468;2023-08-20T04:11:57;26.20;86.10
10538;DHT22;5317;49.048;8.468;2023-08-20T04:14:24;26.10;86.10
10538;DHT22;5317;49.048;8.468;2023-08-20T04:16:50;26.10;86.20
10538;DHT22;5317;49.048;8.468;2023-08-20T04:19:17;26.10;86.40
10538;DHT22;5317;49.048;8.468;2023-08-20T04:21:45;26.10;86.60
10538;DHT22;5317;49.048;8.468;2023-08-20T04:24:12;26.00;86.60
10538;DHT22;5317;49.048;8.468;2023-08-20T04:26:40;26.10;86.60
10538;DHT22;5317;49.048;8.468;2023-08-20T04:29:06;26.00;86.60
10538;DHT22;5317;49.048;8.468;2023-08-20T04:31:33;26.00;86.70
10538;DHT22;5317;49.048;8.468;2023-08-20T04:34:00;25.90;86.90
10538;DHT22;5317;49.048;8.468;2023-08-20T04:36:27;25.90;87.50
10538;DHT22;5317;49.048;8.468;2023-08-20T04:38:55;25.80;87.70
10538;DHT22;5317;49.048;8.468;2023-08-20T04:41:22;25.90;88.00
10538;DHT22;5317;49.048;8.468;2023-08-20T04:43:49;25.90;88.00
10538;DHT22;5317;49.048;8.468;2023-08-20T04:46:16;25.90;88.10
10538;DHT22;5317;49.048;8.468;2023-08-20T04:48:43;25.90;88.20
10538;DHT22;5317;49.048;8.468;2023-08-20T04:51:10;25.90;88.00
10538;DHT22;5317;49.048;8.468;2023-08-20T04:53:37;26.00;88.00
10538;DHT22;5317;49.048;8.468;2023-08-20T04:56:05;26.00;88.10
10538;DHT22;5317;49.048;8.468;2023-08-20T04:58:32;26.10;88.20
10538;DHT22;5317;49.048;8.468;2023-08-20T05:00:59;26.10;88.10
10538;DHT22;5317;49.048;8.468;2023-08-20T05:03:26;26.10;88.00
10538;DHT22;5317;49.048;8.468;2023-08-20T05:05:52;26.10;88.00
10538;DHT22;5317;49.048;8.468;2023-08-20T05:08:19;26.10;87.70
10538;DHT22;5317;49.048;8.468;2023-08-20T05:10:46;26.10;87.90
10538;DHT22;5317;49.048;8.468;2023-08-20T05:13:14;26.10;88.00
10538;DHT22;5317;49.048;8.468;2023-08-20T05:15:42;26.20;88.10
10538;DHT22;5317;49.048;8.468;2023-08-20T05:18:11;26.20;87.90
10538;DHT22;5317;49.048;8.468;2023-08-20T05:20:39;26.20;88.80
10538;DHT22;5317;49.048;8.468;2023-08-20T05:23:06;26.20;88.00
10538;DHT22;5317;49.048;8.468;2023-08-20T05:25:33;26.20;88.00
10538;DHT22;5317;49.048;8.468;2023-08-20T05:28:00;26.20;87.70
10538;DHT22;5317;49.048;8.468;2023-08-20T05:30:28;26.20;87.30
10538;DHT22;5317;49.048;8.468;2023-08-20T05:32:55;26.20;87.50
10538;DHT22;5317;49.048;8.468;2023-08-20T05:35:22;26.30;87.80
10538;DHT22;5317;49.048;8.468;2023-08-20T05:37:48;26.30;87.80
10538;DHT22;5317;49.048;8.468;2023-08-20T05:40:16;26.30;87.70
10538;DHT22;5317;49.048;8.468;2023-08-20T05:42:43;26.40;88.30
10538;DHT22;5317;49.048;8.468;2023-08-20T05:45:11;26.50;88.50
10538;DHT22;5317;49.048;8.468;2023-08-20T05:47:39;26.50;88.50
10538;DHT22;5317;49.048;8.468;2023-08-20T05:50:06;26.60;88.40
10538;DHT22;5317;49.048;8.468;2023-08-20T05:52:33;26.70;88.80
10538;DHT22;5317;49.048;8.468;2023-08-20T05:55:00;26.70;88.50
10538;DHT22;5317;49.048;8.468;2023-08-20T05:57:28;26.80;88.80
10538;DHT22;5317;49.048;8.468;2023-08-20T05:59:55;26.80;88.60
10538;DHT22;5317;49.048;8.468;2023-08-20T06:02:22;26.80;88.50
10538;DHT22;5317;49.048;8.468;2023-08-20T06:04:50;26.80;88.80
10538;DHT22;5317;49.048;8.468;2023-08-20T06:07:17;26.90;89.10
10538;DHT22;5317;49.048;8.468;2023-08-20T06:09:43;26.90;90.00
10538;DHT22;5317;49.048;8.468;2023-08-20T06:12:10;26.90;89.40
10538;DHT22;5317;49.048;8.468;2023-08-20T06:14:37;27.00;89.20
10538;DHT22;5317;49.048;8.468;2023-08-20T06:17:04;27.00;89.30
10538;DHT22;5317;49.048;8.468;2023-08-20T06:19:31;27.00;89.50
10538;DHT22;5317;49.048;8.468;2023-08-20T06:21:59;27.00;89.30
10538;DHT22;5317;49.048;8.468;2023-08-20T06:24:26;27.00;88.90
10538;DHT22;5317;49.048;8.468;2023-08-20T06:26:53;27.00;88.50
10538;DHT22;5317;49.048;8.468;2023-08-20T06:29:19;27.10;89.30
10538;DHT22;5317;49.048;8.468;2023-08-20T06:31:47;27.10;88.60
10538;DHT22;5317;49.048;8.468;2023-08-20T06:34:14;27.20;89.00
10538;DHT22;5317;49.048;8.468;2023-08-20T06:36:41;27.20;88.60
10538;DHT22;5317;49.048;8.468;2023-08-20T06:39:09;27.20;88.40
10538;DHT22;5317;49.048;8.468;2023-08-20T06:41:36;27.20;88.30
10538;DHT22;5317;49.048;8.468;2023-08-20T06:44:03;27.30;88.20
10538;DHT22;5317;49.048;8.468;2023-08-20T06:46:30;27.40;87.90
10538;DHT22;5317;49.048;8.468;2023-08-20T06:48:57;27.40;87.90
10538;DHT22;5317;49.048;8.468;2023-08-20T06:51:24;27.50;88.00
10538;DHT22;5317;49.048;8.468;2023-08-20T06:53:53;27.60;87.60
10538;DHT22;5317;49.048;8.468;2023-08-20T06:56:22;27.70;87.40
10538;DHT22;5317;49.048;8.468;2023-08-20T06:58:49;27.70;87.20
10538;DHT22;5317;49.048;8.468;2023-08-20T07:01:16;27.80;87.50
10538;DHT22;5317;49.048;8.468;2023-08-20T07:03:44;27.90;87.00
10538;DHT22;5317;49.048;8.468;2023-08-20T07:06:11;27.90;86.50
10538;DHT22;5317;49.048;8.468;2023-08-20T07:08:40;28.00;86.10
10538;DHT22;5317;49.048;8.468;2023-08-20T07:11:08;28.00;85.90
10538;DHT22;5317;49.048;8.468;2023-08-20T07:13:36;28.10;85.80
10538;DHT22;5317;49.048;8.468;2023-08-20T07:16:03;28.20;85.40
10538;DHT22;5317;49.048;8.468;2023-08-20T07:18:30;28.20;85.00
10538;DHT22;5317;49.048;8.468;2023-08-20T07:20:57;28.30;84.80
10538;DHT22;5317;49.048;8.468;2023-08-20T07:23:24;28.40;84.50
10538;DHT22;5317;49.048;8.468;2023-08-20T07:25:51;28.50;84.30
10538;DHT22;5317;49.048;8.468;2023-08-20T07:28:18;28.50;84.20
10538;DHT22;5317;49.048;8.468;2023-08-20T07:31:07;28.60;84.20
10538;DHT22;5317;49.048;8.468;2023-08-20T07:33:33;28.70;84.40
10538;DHT22;5317;49.048;8.468;2023-08-20T07:36:00;28.80;83.90
10538;DHT22;5317;49.048;8.468;2023-08-20T07:38:27;28.90;84.10
10538;DHT22;5317;49.048;8.468;2023-08-20T07:40:54;28.90;83.50
10538;DHT22;5317;49.048;8.468;2023-08-20T07:43:21;29.00;83.40
10538;DHT22;5317;49.048;8.468;2023-08-20T07:45:48;29.00;83.10
10538;DHT22;5317;49.048;8.468;2023-08-20T07:48:16;29.10;83.20
10538;DHT22;5317;49.048;8.468;2023-08-20T07:50:43;29.10;83.00
10538;DHT22;5317;49.048;8.468;2023-08-20T07:53:09;29.20;82.70
10538;DHT22;5317;49.048;8.468;2023-08-20T07:55:36;29.20;82.40
10538;DHT22;5317;49.048;8.468;2023-08-20T07:58:03;29.30;82.50
10538;DHT22;5317;49.048;8.468;2023-08-20T08:00:30;29.40;81.90
10538;DHT22;5317;49.048;8.468;2023-08-20T08:02:57;29.50;81.90
10538;DHT22;5317;49.048;8.468;2023-08-20T08:05:25;29.60;82.00
10538;DHT22;5317;49.048;8.468;2023-08-20T08:07:52;29.60;81.00
10538;DHT22;5317;49.048;8.468;2023-08-20T08:10:19;29.70;81.10
10538;DHT22;5317;49.048;8.468;2023-08-20T08:12:46;29.70;81.00
10538;DHT22;5317;49.048;8.468;2023-08-20T08:15:13;29.90;80.80
10538;DHT22;5317;49.048;8.468;2023-08-20T08:17:40;29.90;81.10
10538;DHT22;5317;49.048;8.468;2023-08-20T08:20:07;29.90;80.70
10538;DHT22;5317;49.048;8.468;2023-08-20T08:22:35;30.00;80.50
10538;DHT22;5317;49.048;8.468;2023-08-20T08:25:02;30.10;80.60
10538;DHT22;5317;49.048;8.468;2023-08-20T08:27:29;30.20;80.20
10538;DHT22;5317;49.048;8.468;2023-08-20T08:29:56;30.20;79.70
10538;DHT22;5317;49.048;8.468;2023-08-20T08:32:23;30.30;80.30
10538;DHT22;5317;49.048;8.468;2023-08-20T08:34:53;30.40;80.10
10538;DHT22;5317;49.048;8.468;2023-08-20T08:37:20;30.50;79.70
10538;DHT22;5317;49.048;8.468;2023-08-20T08:39:48;30.60;79.80
10538;DHT22;5317;49.048;8.468;2023-08-20T08:42:16;30.60;79.30
10538;DHT22;5317;49.048;8.468;2023-08-20T08:44:46;30.70;78.20
10538;DHT22;5317;49.048;8.468;2023-08-20T08:47:13;30.80;77.70
10538;DHT22;5317;49.048;8.468;2023-08-20T08:49:40;30.80;77.60
10538;DHT22;5317;49.048;8.468;2023-08-20T08:52:08;30.90;77.70
10538;DHT22;5317;49.048;8.468;2023-08-20T08:54:36;30.90;77.50
10538;DHT22;5317;49.048;8.468;2023-08-20T08:57:05;31.10;77.90
10538;DHT22;5317;49.048;8.468;2023-08-20T08:59:31;31.10;78.20
10538;DHT22;5317;49.048;8.468;2023-08-20T09:01:58;31.20;77.10
10538;DHT22;5317;49.048;8.468;2023-08-20T09:04:26;31.30;76.80
10538;DHT22;5317;49.048;8.468;2023-08-20T09:06:55;31.30;76.90
10538;DHT22;5317;49.048;8.468;2023-08-20T09:09:22;31.50;76.50
10538;DHT22;5317;49.048;8.468;2023-08-20T09:11:49;31.50;76.40
10538;DHT22;5317;49.048;8.468;2023-08-20T09:14:24;31.60;76.00
10538;DHT22;5317;49.048;8.468;2023-08-20T09:16:55;31.70;75.20
10538;DHT22;5317;49.048;8.468;2023-08-20T09:19:22;31.80;75.30
10538;DHT22;5317;49.048;8.468;2023-08-20T09:21:49;31.90;75.00
10538;DHT22;5317;49.048;8.468;2023-08-20T09:24:25;31.90;74.40
10538;DHT22;5317;49.048;8.468;2023-08-20T09:26:57;32.00;73.90
10538;DHT22;5317;49.048;8.468;2023-08-20T09:29:26;32.10;74.10
10538;DHT22;5317;49.048;8.468;2023-08-20T09:32:00;32.20;73.80
10538;DHT22;5317;49.048;8.468;2023-08-20T09:34:37;32.20;73.20
10538;DHT22;5317;49.048;8.468;2023-08-20T09:37:08;32.40;73.60
10538;DHT22;5317;49.048;8.468;2023-08-20T09:39:36;32.40;73.60
10538;DHT22;5317;49.048;8.468;2023-08-20T09:42:05;32.60;73.20
10538;DHT22;5317;49.048;8.468;2023-08-20T09:44:34;32.70;73.00
10538;DHT22;5317;49.048;8.468;2023-08-20T09:47:02;32.70;72.60
10538;DHT22;5317;49.048;8.468;2023-08-20T09:49:30;32.90;72.40
10538;DHT22;5317;49.048;8.468;2023-08-20T09:51:59;33.00;72.30
10538;DHT22;5317;49.048;8.468;2023-08-20T09:54:38;33.10;71.10
10538;DHT22;5317;49.048;8.468;2023-08-20T09:57:11;33.20;70.00
10538;DHT22;5317;49.048;8.468;2023-08-20T09:59:41;33.30;70.40
10538;DHT22;5317;49.048;8.468;2023-08-20T10:02:12;33.30;70.00
10538;DHT22;5317;49.048;8.468;2023-08-20T10:04:39;33.40;70.10
10538;DHT22;5317;49.048;8.468;2023-08-20T10:07:09;33.60;69.80
10538;DHT22;5317;49.048;8.468;2023-08-20T10:09:37;33.60;69.10
10538;DHT22;5317;49.048;8.468;2023-08-20T10:12:05;33.70;68.20
10538;DHT22;5317;49.048;8.468;2023-08-20T10:14:32;33.80;67.90
10538;DHT22;5317;49.048;8.468;2023-08-20T10:17:06;33.90;67.90
10538;DHT22;5317;49.048;8.468;2023-08-20T10:19:33;34.00;66.70
10538;DHT22;5317;49.048;8.468;2023-08-20T10:22:02;34.10;66.50
10538;DHT22;5317;49.048;8.468;2023-08-20T10:24:29;34.20;66.30
10538;DHT22;5317;49.048;8.468;2023-08-20T10:27:09;34.30;67.10
10538;DHT22;5317;49.048;8.468;2023-08-20T10:29:38;34.40;66.10
10538;DHT22;5317;49.048;8.468;2023-08-20T10:32:09;34.50;65.90
10538;DHT22;5317;49.048;8.468;2023-08-20T10:34:37;34.60;65.10
10538;DHT22;5317;49.048;8.468;2023-08-20T10:37:12;34.70;65.80
10538;DHT22;5317;49.048;8.468;2023-08-20T10:39:40;34.80;64.20
10538;DHT22;5317;49.048;8.468;2023-08-20T10:42:27;34.80;65.60
10538;DHT22;5317;49.048;8.468;2023-08-20T10:44:58;34.90;64.60
10538;DHT22;5317;49.048;8.468;2023-08-20T10:47:44;35.00;64.00
10538;DHT22;5317;49.048;8.468;2023-08-20T10:50:12;35.00;63.90
10538;DHT22;5317;49.048;8.468;2023-08-20T10:52:46;35.10;63.50
10538;DHT22;5317;49.048;8.468;2023-08-20T10:55:13;35.20;62.20
10538;DHT22;5317;49.048;8.468;2023-08-20T10:57:41;35.20;62.50
10538;DHT22;5317;49.048;8.468;2023-08-20T11:00:09;35.30;62.60
10538;DHT22;5317;49.048;8.468;2023-08-20T11:02:38;35.40;62.40
10538;DHT22;5317;49.048;8.468;2023-08-20T11:05:16;35.50;62.50
10538;DHT22;5317;49.048;8.468;2023-08-20T11:07:45;35.70;62.50
10538;DHT22;5317;49.048;8.468;2023-08-20T11:10:13;35.80;62.90
10538;DHT22;5317;49.048;8.468;2023-08-20T11:12:41;35.90;62.20
10538;DHT22;5317;49.048;8.468;2023-08-20T11:15:10;35.90;61.60
10538;DHT22;5317;49.048;8.468;2023-08-20T11:17:41;36.00;60.50
10538;DHT22;5317;49.048;8.468;2023-08-20T11:20:09;36.00;60.30
10538;DHT22;5317;49.048;8.468;2023-08-20T11:22:39;36.10;60.80
10538;DHT22;5317;49.048;8.468;2023-08-20T11:25:10;36.20;60.80
10538;DHT22;5317;49.048;8.468;2023-08-20T11:27:40;36.30;60.10
10538;DHT22;5317;49.048;8.468;2023-08-20T11:30:09;36.40;60.30
10538;DHT22;5317;49.048;8.468;2023-08-20T11:32:37;36.40;59.80
10538;DHT22;5317;49.048;8.468;2023-08-20T11:35:09;36.50;59.10
10538;DHT22;5317;49.048;8.468;2023-08-20T11:37:42;36.60;58.90
10538;DHT22;5317;49.048;8.468;2023-08-20T11:40:09;36.70;59.10
10538;DHT22;5317;49.048;8.468;2023-08-20T11:42:36;36.70;59.40
10538;DHT22;5317;49.048;8.468;2023-08-20T11:45:04;36.80;58.80
10538;DHT22;5317;49.048;8.468;2023-08-20T11:47:38;36.80;58.80
10538;DHT22;5317;49.048;8.468;2023-08-20T11:50:06;36.90;58.50
10538;DHT22;5317;49.048;8.468;2023-08-20T11:52:36;37.00;58.80
10538;DHT22;5317;49.048;8.468;2023-08-20T11:55:07;37.10;57.70
10538;DHT22;5317;49.048;8.468;2023-08-20T11:57:37;37.20;58.20
10538;DHT22;5317;49.048;8.468;2023-08-20T12:00:06;37.30;57.70
10538;DHT22;5317;49.048;8.468;2023-08-20T12:02:38;37.30;57.70
10538;DHT22;5317;49.048;8.468;2023-08-20T12:05:12;37.40;57.20
10538;DHT22;5317;49.048;8.468;2023-08-20T12:07:41;37.40;57.30
10538;DHT22;5317;49.048;8.468;2023-08-20T12:10:20;37.60;56.80
10538;DHT22;5317;49.048;8.468;2023-08-20T12:12:48;37.60;56.70
10538;DHT22;5317;49.048;8.468;2023-08-20T12:15:18;37.70;56.70
10538;DHT22;5317;49.048;8.468;2023-08-20T12:17:56;37.80;56.10
10538;DHT22;5317;49.048;8.468;2023-08-20T12:20:23;37.90;54.80
10538;DHT22;5317;49.048;8.468;2023-08-20T12:22:54;37.90;55.70
10538;DHT22;5317;49.048;8.468;2023-08-20T12:25:26;38.00;54.60
10538;DHT22;5317;49.048;8.468;2023-08-20T12:28:02;38.10;54.70
10538;DHT22;5317;49.048;8.468;2023-08-20T12:30:30;38.20;54.00
10538;DHT22;5317;49.048;8.468;2023-08-20T12:33:00;38.30;53.40
10538;DHT22;5317;49.048;8.468;2023-08-20T12:35:31;38.40;53.30
10538;DHT22;5317;49.048;8.468;2023-08-20T12:38:03;38.40;52.70
10538;DHT22;5317;49.048;8.468;2023-08-20T12:40:30;38.40;52.50
10538;DHT22;5317;49.048;8.468;2023-08-20T12:42:57;38.50;52.80
10538;DHT22;5317;49.048;8.468;2023-08-20T12:45:30;38.40;51.80
10538;DHT22;5317;49.048;8.468;2023-08-20T12:47:58;38.50;52.60
10538;DHT22;5317;49.048;8.468;2023-08-20T12:50:25;38.50;51.90
10538;DHT22;5317;49.048;8.468;2023-08-20T12:52:52;38.50;51.80
10538;DHT22;5317;49.048;8.468;2023-08-20T12:55:26;38.50;51.50
10538;DHT22;5317;49.048;8.468;2023-08-20T12:57:57;38.50;50.50
10538;DHT22;5317;49.048;8.468;2023-08-20T13:00:27;38.50;50.60
10538;DHT22;5317;49.048;8.468;2023-08-20T13:02:55;38.60;50.90
10538;DHT22;5317;49.048;8.468;2023-08-20T13:05:23;38.70;50.80
10538;DHT22;5317;49.048;8.468;2023-08-20T13:07:51;38.70;50.80
10538;DHT22;5317;49.048;8.468;2023-08-20T13:10:19;38.70;51.70
10538;DHT22;5317;49.048;8.468;2023-08-20T13:12:50;38.80;50.50
10538;DHT22;5317;49.048;8.468;2023-08-20T13:15:17;38.80;50.30
10538;DHT22;5317;49.048;8.468;2023-08-20T13:17:46;38.90;50.10
10538;DHT22;5317;49.048;8.468;2023-08-20T13:20:13;38.90;48.90
10538;DHT22;5317;49.048;8.468;2023-08-20T13:22:41;38.90;48.70
10538;DHT22;5317;49.048;8.468;2023-08-20T13:25:12;39.00;47.90
10538;DHT22;5317;49.048;8.468;2023-08-20T13:27:41;39.00;47.70
10538;DHT22;5317;49.048;8.468;2023-08-20T13:30:14;39.00;47.90
10538;DHT22;5317;49.048;8.468;2023-08-20T13:32:44;39.10;48.00
10538;DHT22;5317;49.048;8.468;2023-08-20T13:35:11;39.10;47.80
10538;DHT22;5317;49.048;8.468;2023-08-20T13:37:42;39.20;48.00
10538;DHT22;5317;49.048;8.468;2023-08-20T13:40:12;39.30;47.70
10538;DHT22;5317;49.048;8.468;2023-08-20T13:42:39;39.30;47.60
10538;DHT22;5317;49.048;8.468;2023-08-20T13:45:07;39.40;48.50
10538;DHT22;5317;49.048;8.468;2023-08-20T13:47:35;39.50;47.40
10538;DHT22;5317;49.048;8.468;2023-08-20T13:50:03;39.60;47.10
10538;DHT22;5317;49.048;8.468;2023-08-20T13:52:30;39.70;47.00
10538;DHT22;5317;49.048;8.468;2023-08-20T13:54:56;39.70;46.30
10538;DHT22;5317;49.048;8.468;2023-08-20T13:57:26;39.80;45.70
10538;DHT22;5317;49.048;8.468;2023-08-20T13:59:56;39.80;46.30
10538;DHT22;5317;49.048;8.468;2023-08-20T14:02:25;39.70;46.30
10538;DHT22;5317;49.048;8.468;2023-08-20T14:04:53;39.60;46.80
10538;DHT22;5317;49.048;8.468;2023-08-20T14:07:23;39.50;46.30
10538;DHT22;5317;49.048;8.468;2023-08-20T14:09:54;39.50;46.50
10538;DHT22;5317;49.048;8.468;2023-08-20T14:12:23;39.50;47.10
10538;DHT22;5317;49.048;8.468;2023-08-20T14:14:53;39.60;47.50
10538;DHT22;5317;49.048;8.468;2023-08-20T14:17:27;39.60;46.90
10538;DHT22;5317;49.048;8.468;2023-08-20T14:19:55;39.70;47.50
10538;DHT22;5317;49.048;8.468;2023-08-20T14:22:22;39.70;47.00
10538;DHT22;5317;49.048;8.468;2023-08-20T14:24:49;39.70;46.30
10538;DHT22;5317;49.048;8.468;2023-08-20T14:27:18;39.70;46.50
10538;DHT22;5317;49.048;8.468;2023-08-20T14:29:49;39.70;46.90
10538;DHT22;5317;49.048;8.468;2023-08-20T14:32:18;39.80;47.20
10538;DHT22;5317;49.048;8.468;2023-08-20T14:34:49;39.80;46.80
10538;DHT22;5317;49.048;8.468;2023-08-20T14:37:17;39.80;47.00
10538;DHT22;5317;49.048;8.468;2023-08-20T14:39:44;39.80;46.80
10538;DHT22;5317;49.048;8.468;2023-08-20T14:42:11;39.80;47.00
10538;DHT22;5317;49.048;8.468;2023-08-20T14:44:38;39.80;46.90
10538;DHT22;5317;49.048;8.468;2023-08-20T14:47:13;39.80;47.20
10538;DHT22;5317;49.048;8.468;2023-08-20T14:49:40;39.80;47.00
10538;DHT22;5317;49.048;8.468;2023-08-20T14:52:09;39.80;46.80
10538;DHT22;5317;49.048;8.468;2023-08-20T14:54:37;39.70;46.30
10538;DHT22;5317;49.048;8.468;2023-08-20T14:57:08;39.70;46.60
10538;DHT22;5317;49.048;8.468;2023-08-20T14:59:38;39.70;46.70
10538;DHT22;5317;49.048;8.468;2023-08-20T15:02:09;39.70;46.60
10538;DHT22;5317;49.048;8.468;2023-08-20T15:04:36;39.70;45.80
10538;DHT22;5317;49.048;8.468;2023-08-20T15:07:08;39.70;47.10
10538;DHT22;5317;49.048;8.468;2023-08-20T15:09:38;39.70;45.80
10538;DHT22;5317;49.048;8.468;2023-08-20T15:12:06;39.80;45.50
10538;DHT22;5317;49.048;8.468;2023-08-20T15:14:40;39.70;45.30
10538;DHT22;5317;49.048;8.468;2023-08-20T15:17:10;39.70;45.80
10538;DHT22;5317;49.048;8.468;2023-08-20T15:19:40;39.70;45.50
10538;DHT22;5317;49.048;8.468;2023-08-20T15:22:09;39.60;45.50
10538;DHT22;5317;49.048;8.468;2023-08-20T15:24:35;39.60;45.70
10538;DHT22;5317;49.048;8.468;2023-08-20T15:27:09;39.50;45.40
10538;DHT22;5317;49.048;8.468;2023-08-20T15:29:36;39.50;45.10
10538;DHT22;5317;49.048;8.468;2023-08-20T15:32:09;39.50;45.10
10538;DHT22;5317;49.048;8.468;2023-08-20T15:34:38;39.30;45.20
10538;DHT22;5317;49.048;8.468;2023-08-20T15:37:08;39.30;45.40
10538;DHT22;5317;49.048;8.468;2023-08-20T15:39:34;39.30;45.60
10538;DHT22;5317;49.048;8.468;2023-08-20T15:42:10;39.20;45.40
10538;DHT22;5317;49.048;8.468;2023-08-20T15:44:45;39.10;45.80
10538;DHT22;5317;49.048;8.468;2023-08-20T15:47:17;39.00;45.50
10538;DHT22;5317;49.048;8.468;2023-08-20T15:49:49;38.90;45.10
10538;DHT22;5317;49.048;8.468;2023-08-20T15:52:17;38.90;45.00